createdAt,value
2022-11-16T00:02:13.254Z,5.55
2022-11-16T00:04:39.935Z,5.70
2022-11-16T00:07:06.479Z,5.28
2022-11-16T00:09:33.259Z,6.10
2022-11-16T00:12:02.069Z,5.75
2022-11-16T00:14:30.762Z,5.05
2022-11-16T00:16:58.469Z,6.47
2022-11-16T00:19:25.911Z,5.60
2022-11-16T00:21:53.199Z,6.20
2022-11-16T00:24:21.483Z,5.88
2022-11-16T00:26:48.609Z,6.40
2022-11-16T00:29:17.195Z,6.57
2022-11-16T00:31:44.795Z,5.57
2022-11-16T00:34:11.356Z,5.82
2022-11-16T00:36:37.704Z,4.90
2022-11-16T00:39:04.149Z,4.65
2022-11-16T00:41:30.523Z,6.13
2022-11-16T00:43:56.909Z,5.88
2022-11-16T00:46:23.273Z,5.50
2022-11-16T00:48:49.650Z,5.05
2022-11-16T00:51:16.048Z,4.80
2022-11-16T00:53:42.537Z,5.60
2022-11-16T00:56:08.850Z,5.63
2022-11-16T00:58:41.500Z,5.65
2022-11-16T01:01:11.563Z,5.93
2022-11-16T01:03:38.507Z,6.47
2022-11-16T01:06:11.723Z,6.05
2022-11-16T01:08:39.680Z,5.97
2022-11-16T01:11:25.376Z,6.15
2022-11-16T01:13:52.217Z,6.10
2022-11-16T01:16:21.461Z,6.35
2022-11-16T01:18:49.758Z,6.40
2022-11-16T01:21:16.797Z,5.82
2022-11-16T01:23:43.806Z,5.78
2022-11-16T01:26:10.344Z,5.90
2022-11-16T01:28:37.751Z,5.30
2022-11-16T01:31:04.340Z,6.18
2022-11-16T01:33:33.976Z,5.88
2022-11-16T01:36:00.727Z,5.72
2022-11-16T01:38:29.787Z,5.68
2022-11-16T01:40:56.894Z,5.30
2022-11-16T01:43:27.137Z,5.28
2022-11-16T01:46:00.106Z,5.78
2022-11-16T01:48:30.010Z,6.55
2022-11-16T01:50:57.711Z,6.03
2022-11-16T01:53:24.798Z,6.57
2022-11-16T01:55:54.951Z,6.00
2022-11-16T01:58:37.092Z,6.63
2022-11-16T02:01:14.792Z,7.15
2022-11-16T02:03:48.944Z,6.40
2022-11-16T02:06:28.857Z,5.43
2022-11-16T02:09:48.933Z,5.78
2022-11-16T02:12:46.323Z,5.28
2022-11-16T02:15:29.275Z,5.43
2022-11-16T02:18:21.024Z,5.90
2022-11-16T02:20:58.660Z,5.95
2022-11-16T02:23:52.553Z,5.85
2022-11-16T02:26:38.634Z,5.32
2022-11-16T02:29:20.106Z,4.45
2022-11-16T02:32:09.727Z,6.15
2022-11-16T02:34:42.145Z,5.60
2022-11-16T02:37:11.725Z,5.45
2022-11-16T02:39:39.234Z,5.65
2022-11-16T02:42:12.710Z,5.57
2022-11-16T02:44:44.976Z,5.78
2022-11-16T02:47:18.301Z,4.03
2022-11-16T02:49:57.984Z,5.90
2022-11-16T02:52:26.203Z,5.43
2022-11-16T02:54:52.515Z,5.95
2022-11-16T02:57:32.796Z,6.55
2022-11-16T03:00:00.607Z,5.72
2022-11-16T03:03:10.039Z,6.70
2022-11-16T03:05:50.971Z,6.68
2022-11-16T03:08:29.727Z,6.43
2022-11-16T03:11:25.633Z,6.18
2022-11-16T03:14:01.060Z,6.57
2022-11-16T03:16:34.862Z,6.53
2022-11-16T03:19:07.493Z,6.38
2022-11-16T03:21:46.932Z,7.28
2022-11-16T03:24:14.264Z,6.30
2022-11-16T03:27:01.663Z,6.32
2022-11-16T03:29:33.462Z,6.95
2022-11-16T03:32:18.998Z,6.70
2022-11-16T03:34:56.939Z,6.65
2022-11-16T03:37:26.252Z,6.55
2022-11-16T03:39:53.878Z,7.57
2022-11-16T03:42:23.726Z,7.90
2022-11-16T03:44:50.301Z,8.13
2022-11-16T03:47:16.681Z,8.27
2022-11-16T03:49:47.556Z,8.45
2022-11-16T03:52:17.570Z,9.35
2022-11-16T03:54:44.001Z,8.93
2022-11-16T03:57:18.016Z,9.18
2022-11-16T03:59:49.219Z,8.32
2022-11-16T04:02:15.725Z,8.18
2022-11-16T04:05:01.499Z,8.60
2022-11-16T04:07:46.544Z,8.27
2022-11-16T04:10:33.088Z,8.32
2022-11-16T04:13:19.330Z,8.90
2022-11-16T04:16:04.407Z,7.95
2022-11-16T04:18:49.246Z,9.85
2022-11-16T04:21:40.589Z,10.35
2022-11-16T04:24:18.596Z,9.68
2022-11-16T04:27:07.273Z,8.82
2022-11-16T04:29:34.779Z,9.45
2022-11-16T04:32:20.178Z,9.85
2022-11-16T04:35:05.792Z,9.93
2022-11-16T04:37:52.296Z,10.55
2022-11-16T04:40:29.242Z,10.10
2022-11-16T04:43:01.630Z,10.90
2022-11-16T04:45:51.027Z,10.50
2022-11-16T04:48:20.159Z,10.77
2022-11-16T04:50:48.307Z,10.65
2022-11-16T04:53:15.931Z,10.30
2022-11-16T04:55:46.277Z,11.05
2022-11-16T04:58:13.895Z,10.90
2022-11-16T05:00:40.330Z,12.20
2022-11-16T05:03:07.400Z,11.07
2022-11-16T05:05:33.747Z,11.23
2022-11-16T05:08:00.206Z,12.00
2022-11-16T05:10:28.960Z,12.10
2022-11-16T05:12:55.664Z,12.27
2022-11-16T05:15:23.131Z,11.95
2022-11-16T05:17:51.031Z,11.82
2022-11-16T05:20:39.468Z,12.95
2022-11-16T05:23:27.046Z,11.32
2022-11-16T05:25:54.587Z,12.02
2022-11-16T05:28:21.824Z,12.60
2022-11-16T05:30:48.162Z,11.93
2022-11-16T05:33:18.934Z,12.52
2022-11-16T05:35:45.484Z,11.88
2022-11-16T05:38:13.483Z,13.13
2022-11-16T05:40:44.057Z,12.48
2022-11-16T05:43:10.462Z,12.82
2022-11-16T05:45:43.162Z,11.50
2022-11-16T05:48:10.624Z,10.77
2022-11-16T05:50:42.314Z,11.60
2022-11-16T05:53:19.465Z,11.27
2022-11-16T05:55:47.349Z,11.13
2022-11-16T05:58:13.866Z,11.35
2022-11-16T06:00:40.250Z,11.95
2022-11-16T06:03:09.039Z,12.15
2022-11-16T06:05:40.256Z,12.80
2022-11-16T06:08:07.296Z,12.35
2022-11-16T06:10:33.605Z,13.82
2022-11-16T06:13:00.012Z,13.32
2022-11-16T06:15:26.594Z,13.95
2022-11-16T06:17:53.006Z,14.38
2022-11-16T06:20:20.987Z,14.20
2022-11-16T06:22:47.358Z,15.10
2022-11-16T06:25:14.171Z,13.93
2022-11-16T06:27:43.167Z,13.50
2022-11-16T06:30:12.224Z,13.98
2022-11-16T06:32:39.899Z,15.15
2022-11-16T06:35:07.358Z,15.10
2022-11-16T06:37:33.846Z,14.07
2022-11-16T06:40:00.247Z,14.50
2022-11-16T06:42:27.726Z,13.32
2022-11-16T06:44:54.842Z,13.25
2022-11-16T06:47:25.951Z,13.38
2022-11-16T06:49:52.746Z,13.85
2022-11-16T06:52:21.746Z,12.63
2022-11-16T06:54:48.102Z,13.13
2022-11-16T06:57:14.481Z,13.38
2022-11-16T06:59:40.953Z,13.25
2022-11-16T07:02:10.332Z,13.95
2022-11-16T07:04:37.863Z,12.38
2022-11-16T07:07:04.543Z,12.00
2022-11-16T07:09:32.821Z,12.27
2022-11-16T07:11:59.721Z,12.38
2022-11-16T07:14:27.397Z,12.38
2022-11-16T07:16:58.046Z,12.38
2022-11-16T07:19:26.209Z,13.10
2022-11-16T07:21:52.667Z,12.20
2022-11-16T07:24:19.034Z,12.18
2022-11-16T07:26:46.139Z,13.60
2022-11-16T07:29:17.229Z,13.07
2022-11-16T07:32:02.667Z,12.48
2022-11-16T07:34:47.415Z,11.65
2022-11-16T07:37:16.017Z,10.90
2022-11-16T07:39:43.512Z,11.65
2022-11-16T07:42:11.615Z,10.13
2022-11-16T07:45:00.135Z,11.48
2022-11-16T07:47:26.692Z,10.98
2022-11-16T07:49:53.158Z,9.82
2022-11-16T07:52:21.461Z,9.68
2022-11-16T07:54:59.309Z,9.63
2022-11-16T07:57:28.176Z,8.57
2022-11-16T07:59:56.131Z,8.57
2022-11-16T08:02:22.883Z,8.80
2022-11-16T08:04:50.563Z,7.10
2022-11-16T08:07:19.699Z,5.30
2022-11-16T08:09:51.585Z,5.00
2022-11-16T08:12:18.206Z,4.25
2022-11-16T08:14:44.596Z,3.30
2022-11-16T08:17:12.853Z,3.47
2022-11-16T08:19:40.121Z,3.70
2022-11-16T08:22:09.331Z,4.03
2022-11-16T08:24:35.839Z,3.47
2022-11-16T08:27:02.459Z,3.95
2022-11-16T08:29:29.303Z,4.80
2022-11-16T08:31:57.259Z,4.18
2022-11-16T08:34:23.783Z,4.28
2022-11-16T08:36:55.048Z,4.15
2022-11-16T08:39:26.955Z,5.13
2022-11-16T08:41:53.487Z,3.65
2022-11-16T08:44:19.931Z,3.63
2022-11-16T08:46:51.414Z,3.65
2022-11-16T08:49:28.749Z,1.83
2022-11-16T08:51:56.152Z,1.67
2022-11-16T08:54:22.833Z,2.00
2022-11-16T08:56:49.408Z,1.70
2022-11-16T08:59:17.343Z,1.65
2022-11-16T09:01:49.944Z,1.25
2022-11-16T09:04:18.543Z,1.05
2022-11-16T09:06:45.700Z,1.33
2022-11-16T09:09:12.049Z,1.50
2022-11-16T09:11:38.619Z,1.30
2022-11-16T09:14:04.971Z,1.10
2022-11-16T09:16:31.383Z,1.08
2022-11-16T09:18:57.765Z,1.60
2022-11-16T09:21:26.726Z,1.23
2022-11-16T09:23:54.610Z,1.65
2022-11-16T09:26:23.266Z,1.58
2022-11-16T09:29:04.178Z,1.48
2022-11-16T09:31:34.000Z,1.60
2022-11-16T09:34:00.352Z,1.20
2022-11-16T09:36:28.166Z,1.30
2022-11-16T09:39:25.847Z,1.40
2022-11-16T09:41:48.446Z,1.30
2022-11-16T09:44:53.610Z,1.35
2022-11-16T09:47:43.099Z,1.10
2022-11-16T09:50:22.319Z,1.27
2022-11-16T09:52:52.556Z,1.40
2022-11-16T09:55:29.152Z,1.58
2022-11-16T09:57:58.643Z,1.38
2022-11-16T10:00:25.645Z,0.80
2022-11-16T10:03:10.127Z,1.23
2022-11-16T10:05:52.907Z,2.05
2022-11-16T10:08:46.509Z,1.38
2022-11-16T10:14:03.943Z,1.50
2022-11-16T10:16:53.158Z,1.17
2022-11-16T10:19:35.862Z,1.95
2022-11-16T10:22:26.826Z,1.15
2022-11-16T10:25:00.597Z,1.20
2022-11-16T10:27:37.719Z,1.10
2022-11-16T10:30:12.319Z,1.17
2022-11-16T10:32:47.924Z,1.13
2022-11-16T10:35:25.409Z,1.48
2022-11-16T10:37:52.196Z,1.40
2022-11-16T10:40:35.749Z,1.00
2022-11-16T10:43:15.197Z,1.50
2022-11-16T10:46:05.350Z,1.52
2022-11-16T10:48:41.132Z,1.83
2022-11-16T10:51:09.278Z,0.82
2022-11-16T10:53:38.073Z,2.58
2022-11-16T10:56:21.106Z,1.05
2022-11-16T10:59:05.399Z,1.75
2022-11-16T11:01:43.497Z,1.20
2022-11-16T11:04:17.776Z,1.63
2022-11-16T11:06:46.287Z,1.42
2022-11-16T11:09:35.968Z,2.63
2022-11-16T11:15:10.813Z,1.80
2022-11-16T11:17:42.591Z,1.38
2022-11-16T11:20:22.602Z,2.20
2022-11-16T11:22:57.786Z,1.70
2022-11-16T11:25:36.501Z,1.45
2022-11-16T11:28:26.375Z,1.45
2022-11-16T11:31:25.514Z,1.83
2022-11-16T11:33:55.492Z,1.52
2022-11-16T11:36:25.059Z,1.80
2022-11-16T11:39:01.231Z,1.65
2022-11-16T11:41:36.792Z,1.42
2022-11-16T11:44:18.463Z,1.05
2022-11-16T11:50:21.990Z,1.95
2022-11-16T11:53:05.346Z,1.35
2022-11-16T11:58:00.361Z,1.55
2022-11-16T12:00:26.770Z,1.40
2022-11-16T12:03:14.982Z,1.90
2022-11-16T12:05:54.836Z,1.42
2022-11-16T12:08:49.237Z,1.77
2022-11-16T12:11:50.412Z,1.20
2022-11-16T12:14:35.329Z,1.63
2022-11-16T12:17:20.552Z,1.92
2022-11-16T12:20:25.679Z,1.60
2022-11-16T12:23:21.400Z,1.40
2022-11-16T12:26:02.737Z,2.40
2022-11-16T12:29:00.196Z,1.50
2022-11-16T12:31:53.372Z,1.60
2022-11-16T12:34:38.828Z,1.73
2022-11-16T12:37:21.059Z,1.90
2022-11-16T12:40:12.041Z,2.05
2022-11-16T12:43:00.735Z,2.22
2022-11-16T12:45:42.594Z,2.88
2022-11-16T12:48:42.678Z,1.67
2022-11-16T12:51:34.933Z,1.92
2022-11-16T12:54:18.603Z,2.95
2022-11-16T12:57:02.859Z,1.77
2022-11-16T12:59:44.899Z,1.95
2022-11-16T13:02:46.758Z,2.22
2022-11-16T13:05:20.707Z,1.85
2022-11-16T13:07:55.132Z,1.52
2022-11-16T13:10:28.003Z,2.30
2022-11-16T13:13:29.650Z,2.28
2022-11-16T13:15:48.003Z,1.70
2022-11-16T13:18:17.502Z,3.47
2022-11-16T13:21:00.415Z,1.88
2022-11-16T13:23:57.735Z,2.08
2022-11-16T13:26:44.547Z,1.58
2022-11-16T13:29:37.198Z,2.30
2022-11-16T13:32:34.789Z,1.50
2022-11-16T13:35:05.246Z,2.38
2022-11-16T13:37:37.835Z,1.42
2022-11-16T13:40:07.129Z,2.38
2022-11-16T13:42:44.815Z,1.83
2022-11-16T13:45:22.971Z,1.65
2022-11-16T13:47:55.492Z,1.75
2022-11-16T13:50:36.048Z,2.10
2022-11-16T13:56:14.889Z,1.40
2022-11-16T13:58:46.882Z,1.70
2022-11-16T14:01:17.280Z,1.60
2022-11-16T14:03:46.279Z,1.88
2022-11-16T14:06:18.847Z,1.90
2022-11-16T14:08:56.323Z,2.35
2022-11-16T14:11:33.444Z,1.30
2022-11-16T14:14:10.742Z,1.20
2022-11-16T14:16:50.701Z,1.70
2022-11-16T14:19:52.044Z,1.73
2022-11-16T14:22:35.778Z,1.92
2022-11-16T14:25:28.469Z,2.05
2022-11-16T14:28:08.908Z,3.15
2022-11-16T14:31:12.373Z,1.58
2022-11-16T14:33:39.127Z,1.27
2022-11-16T14:36:09.320Z,0.90
2022-11-16T14:38:40.091Z,1.38
2022-11-16T14:41:12.419Z,2.15
2022-11-16T14:43:42.538Z,1.70
2022-11-16T14:46:25.911Z,1.45
2022-11-16T14:51:31.520Z,0.77
2022-11-16T14:54:02.471Z,1.38
2022-11-16T14:56:28.848Z,1.95
2022-11-16T14:58:57.473Z,1.45
2022-11-16T15:01:27.881Z,1.35
2022-11-16T15:04:04.318Z,1.38
2022-11-16T15:06:43.390Z,2.03
2022-11-16T15:09:19.781Z,2.05
2022-11-16T15:12:08.100Z,1.42
2022-11-16T15:14:40.477Z,1.90
2022-11-16T15:17:07.712Z,1.45
2022-11-16T15:19:34.056Z,1.85
2022-11-16T15:22:02.308Z,1.52
2022-11-16T15:24:35.659Z,2.35
2022-11-16T15:27:11.308Z,3.30
2022-11-16T15:29:38.579Z,5.82
2022-11-16T15:32:06.843Z,6.65
2022-11-16T15:34:33.364Z,6.10
2022-11-16T15:36:59.922Z,5.40
2022-11-16T15:39:32.712Z,3.90
2022-11-16T15:42:03.697Z,3.58
2022-11-16T15:44:31.163Z,3.13
2022-11-16T15:46:58.744Z,2.28
2022-11-16T15:49:38.258Z,2.88
2022-11-16T15:52:05.451Z,2.00
2022-11-16T15:54:53.175Z,2.10
2022-11-16T15:57:21.550Z,2.88
2022-11-16T15:59:50.435Z,2.22
2022-11-16T16:02:20.227Z,2.75
2022-11-16T16:04:46.837Z,2.83
2022-11-16T16:07:37.437Z,2.28
2022-11-16T16:10:19.022Z,2.25
2022-11-16T16:12:59.800Z,2.53
2022-11-16T16:15:29.835Z,2.75
2022-11-16T16:17:58.019Z,3.17
2022-11-16T16:20:27.691Z,3.05
2022-11-16T16:23:08.504Z,3.08
2022-11-16T16:25:36.059Z,3.05
2022-11-16T16:28:03.280Z,2.75
2022-11-16T16:30:31.197Z,4.95
2022-11-16T16:32:57.739Z,6.03
2022-11-16T16:35:25.555Z,4.45
2022-11-16T16:37:59.087Z,5.30
2022-11-16T16:40:26.192Z,4.82
2022-11-16T16:42:53.165Z,4.10
2022-11-16T16:45:39.820Z,3.83
2022-11-16T16:48:06.757Z,3.47
2022-11-16T16:50:33.132Z,3.33
2022-11-16T16:52:59.483Z,2.90
2022-11-16T16:55:26.070Z,2.70
2022-11-16T16:57:57.918Z,2.40
2022-11-16T17:00:24.663Z,2.65
2022-11-16T17:02:51.407Z,4.18
2022-11-16T17:05:17.808Z,2.90
2022-11-16T17:07:44.253Z,2.38
2022-11-16T17:10:10.597Z,2.17
2022-11-16T17:12:36.906Z,2.30
2022-11-16T17:15:06.599Z,2.95
2022-11-16T17:17:32.960Z,3.05
2022-11-16T17:19:59.753Z,4.32
2022-11-16T17:22:26.106Z,3.85
2022-11-16T17:24:52.518Z,5.07
2022-11-16T17:27:19.105Z,4.75
2022-11-16T17:29:45.466Z,4.30
2022-11-16T17:32:11.795Z,4.35
2022-11-16T17:34:41.412Z,4.00
2022-11-16T17:37:07.906Z,4.13
2022-11-16T17:39:34.714Z,3.45
2022-11-16T17:42:01.145Z,3.13
2022-11-16T17:44:27.576Z,3.25
2022-11-16T17:46:53.971Z,4.80
2022-11-16T17:49:20.288Z,7.65
2022-11-16T17:51:47.053Z,7.88
2022-11-16T17:54:13.661Z,12.02
2022-11-16T17:56:40.152Z,20.80
2022-11-16T17:59:06.656Z,12.73
2022-11-16T18:01:33.084Z,10.75
2022-11-16T18:04:00.931Z,9.57
2022-11-16T18:06:27.474Z,8.80
2022-11-16T18:08:54.094Z,8.75
2022-11-16T18:11:25.888Z,7.72
2022-11-16T18:14:00.374Z,8.93
2022-11-16T18:16:29.750Z,7.22
2022-11-16T18:18:58.619Z,8.35
2022-11-16T18:21:25.745Z,7.00
2022-11-16T18:23:52.242Z,5.32
2022-11-16T18:26:21.086Z,4.63
2022-11-16T18:28:48.789Z,4.72
2022-11-16T18:31:17.725Z,5.70
2022-11-16T18:33:44.575Z,5.05
2022-11-16T18:36:12.638Z,5.97
2022-11-16T18:38:39.296Z,5.35
2022-11-16T18:41:14.952Z,4.13
2022-11-16T18:43:53.542Z,3.97
2022-11-16T18:46:25.678Z,3.35
2022-11-16T18:48:52.875Z,3.45
2022-11-16T18:51:20.785Z,3.22
2022-11-16T18:53:48.288Z,3.92
2022-11-16T18:56:18.619Z,5.43
2022-11-16T18:58:53.605Z,5.90
2022-11-16T19:01:25.871Z,5.60
2022-11-16T19:03:53.532Z,5.55
2022-11-16T19:06:21.326Z,6.13
2022-11-16T19:08:55.886Z,5.47
2022-11-16T19:11:28.537Z,4.68
2022-11-16T19:14:07.785Z,4.88
2022-11-16T19:16:34.716Z,5.38
2022-11-16T19:19:05.224Z,5.45
2022-11-16T19:21:57.507Z,5.07
2022-11-16T19:24:27.151Z,5.07
2022-11-16T19:26:53.725Z,5.47
2022-11-16T19:29:23.319Z,5.00
2022-11-16T19:31:55.804Z,5.38
2022-11-16T19:34:22.694Z,5.05
2022-11-16T19:36:57.332Z,6.15
2022-11-16T19:39:26.248Z,5.53
2022-11-16T19:41:53.080Z,4.90
2022-11-16T19:44:25.898Z,4.88
2022-11-16T19:46:56.183Z,8.75
2022-11-16T19:49:40.940Z,15.98
2022-11-16T19:52:07.956Z,8.40
2022-11-16T19:54:37.618Z,5.43
2022-11-16T19:57:12.743Z,4.70
2022-11-16T19:59:42.803Z,4.68
2022-11-16T20:02:18.195Z,4.78
2022-11-16T20:04:50.634Z,4.82
2022-11-16T20:07:24.491Z,3.53
2022-11-16T20:09:53.610Z,4.22
2022-11-16T20:12:42.214Z,4.32
2022-11-16T20:15:20.178Z,5.25
2022-11-16T20:18:36.489Z,4.68
2022-11-16T20:21:34.175Z,4.60
2022-11-16T20:24:15.775Z,5.88
2022-11-16T20:26:51.671Z,5.43
2022-11-16T20:29:20.312Z,5.13
2022-11-16T20:31:49.916Z,5.90
2022-11-16T20:34:22.373Z,4.38
2022-11-16T20:36:51.948Z,4.50
2022-11-16T20:39:31.685Z,4.72
2022-11-16T20:42:17.958Z,5.38
2022-11-16T20:44:49.111Z,4.47
2022-11-16T20:47:20.704Z,5.25
2022-11-16T20:50:00.643Z,5.57
2022-11-16T20:52:44.291Z,5.65
2022-11-16T20:55:23.805Z,5.43
2022-11-16T20:57:50.828Z,4.53
2022-11-16T21:00:26.611Z,6.05
2022-11-16T21:03:02.232Z,6.82
2022-11-16T21:05:43.310Z,5.18
2022-11-16T21:08:57.279Z,4.60
2022-11-16T21:11:31.700Z,4.20
2022-11-16T21:14:19.396Z,5.35
2022-11-16T21:16:45.802Z,5.82
2022-11-16T21:19:26.682Z,5.10
2022-11-16T21:21:53.244Z,5.45
2022-11-16T21:24:19.556Z,5.57
2022-11-16T21:26:45.992Z,5.10
2022-11-16T21:29:12.303Z,5.05
2022-11-16T21:31:38.869Z,5.65
2022-11-16T21:34:07.169Z,5.03
2022-11-16T21:36:36.714Z,5.28
2022-11-16T21:39:03.247Z,5.10
2022-11-16T21:41:29.601Z,4.55
2022-11-16T21:43:56.197Z,4.82
2022-11-16T21:46:26.710Z,5.03
2022-11-16T21:48:55.296Z,5.68
2022-11-16T21:51:24.735Z,5.13
2022-11-16T21:53:51.511Z,5.80
2022-11-16T21:56:21.783Z,4.80
2022-11-16T21:58:50.245Z,4.22
2022-11-16T22:01:16.692Z,5.90
2022-11-16T22:03:45.700Z,6.22
2022-11-16T22:06:35.136Z,6.63
2022-11-16T22:09:01.752Z,7.63
2022-11-16T22:11:28.435Z,8.52
2022-11-16T22:13:54.848Z,5.38
2022-11-16T22:16:23.224Z,5.55
2022-11-16T22:18:50.268Z,5.78
2022-11-16T22:21:17.017Z,5.05
2022-11-16T22:23:45.238Z,4.65
2022-11-16T22:26:30.981Z,5.80
2022-11-16T22:28:57.985Z,5.95
2022-11-16T22:31:24.372Z,4.88
2022-11-16T22:33:53.807Z,6.68
2022-11-16T22:36:20.414Z,5.97
2022-11-16T22:38:46.794Z,6.03
2022-11-16T22:41:13.171Z,6.10
2022-11-16T22:43:39.788Z,5.95
2022-11-16T22:46:06.313Z,6.28
2022-11-16T22:48:38.209Z,6.53
2022-11-16T22:51:17.821Z,5.72
2022-11-16T22:53:44.586Z,6.03
2022-11-16T22:56:11.374Z,5.72
2022-11-16T22:58:38.796Z,6.13
2022-11-16T23:01:07.780Z,5.30
2022-11-16T23:03:43.755Z,5.25
2022-11-16T23:06:17.924Z,4.70
2022-11-16T23:08:47.325Z,5.57
2022-11-16T23:11:45.487Z,5.10
2022-11-16T23:14:37.178Z,4.80
2022-11-16T23:17:13.980Z,6.22
2022-11-16T23:20:02.414Z,4.40
2022-11-16T23:23:03.509Z,4.43
2022-11-16T23:25:56.908Z,4.90
2022-11-16T23:28:26.471Z,5.65
2022-11-16T23:31:44.379Z,4.95
2022-11-16T23:34:12.084Z,4.72
2022-11-16T23:36:38.975Z,4.28
2022-11-16T23:39:09.405Z,5.03
2022-11-16T23:41:59.850Z,4.90
2022-11-16T23:44:26.658Z,4.90
2022-11-16T23:46:53.395Z,4.82
2022-11-16T23:49:20.376Z,4.55
2022-11-16T23:51:57.271Z,5.25
2022-11-16T23:54:29.574Z,4.00
2022-11-16T23:56:58.808Z,5.10
2022-11-16T23:59:37.517Z,4.28
